Time;durP1;ratioP1;P1;durP2;ratioP2;P2;SDS_P1;SDS_P2;PMS_P1;PMS_P2;Temp;Humidity;BMP_temperature;BMP_pressure;BME280_temperature;BME280_humidity;BME280_pressure;Samples;Min_cycle;Max_cycle;Signal;HPM_P1;HPM_P2
2022/08/18 00:00:28;;;;;;;8.35;6.950001;;;;;;;20.93;59.69531;94942.28;;;;
2022/08/18 00:01:29;;;;;;;8.35;6.950001;;;;;;;20.93;59.69531;94942.28;;;;
2022/08/18 00:02:29;;;;;;;8.35;6.950001;;;;;;;20.93;59.69531;94942.28;;;;
2022/08/18 00:03:30;;;;;;;8.35;6.950001;;;;;;;20.93;59.69531;94942.28;;;;
2022/08/18 00:04:31;;;;;;;7.249999;6.55;;;;;;;20.91;60.4209;94964.75;;;;
2022/08/18 00:05:32;;;;;;;7.249999;6.55;;;;;;;20.91;60.4209;94964.75;;;;
2022/08/18 00:06:34;;;;;;;7.249999;6.55;;;;;;;20.91;60.4209;94964.75;;;;
2022/08/18 00:07:35;;;;;;;7.249999;6.55;;;;;;;20.91;60.4209;94964.75;;;;
2022/08/18 00:08:35;;;;;;;7.249999;6.55;;;;;;;20.91;60.4209;94964.75;;;;
2022/08/18 00:09:36;;;;;;;7.249999;6.55;;;;;;;20.91;60.4209;94964.75;;;;
2022/08/18 00:10:38;;;;;;;7.249999;6.55;;;;;;;20.91;60.4209;94964.75;;;;
2022/08/18 00:11:40;;;;;;;7.249999;6.55;;;;;;;20.91;60.4209;94964.75;;;;
2022/08/18 00:12:43;;;;;;;7.249999;6.55;;;;;;;20.91;60.4209;94964.75;;;;
2022/08/18 00:13:43;;;;;;;7.249999;6.55;;;;;;;20.91;60.4209;94964.75;;;;
2022/08/18 00:14:44;;;;;;;7.249999;6.55;;;;;;;20.91;60.4209;94964.75;;;;
2022/08/18 00:15:46;;;;;;;7.45;6.6;;;;;;;20.8;60.82715;94942.13;;;;
2022/08/18 00:16:46;;;;;;;7.45;6.6;;;;;;;20.8;60.82715;94942.13;;;;
2022/08/18 00:17:48;;;;;;;7.45;6.6;;;;;;;20.8;60.82715;94942.13;;;;
2022/08/18 00:18:49;;;;;;;7.45;6.6;;;;;;;20.8;60.82715;94942.13;;;;
2022/08/18 00:19:49;;;;;;;7.45;6.6;;;;;;;20.8;60.82715;94942.13;;;;
2022/08/18 00:20:50;;;;;;;7.45;6.6;;;;;;;20.8;60.82715;94942.13;;;;
2022/08/18 00:21:50;;;;;;;7.45;6.6;;;;;;;20.8;60.82715;94942.13;;;;
2022/08/18 00:22:51;;;;;;;7.45;6.6;;;;;;;20.8;60.82715;94942.13;;;;
2022/08/18 00:23:52;;;;;;;7.45;6.6;;;;;;;20.8;60.82715;94942.13;;;;
2022/08/18 00:24:53;;;;;;;7.45;6.6;;;;;;;20.8;60.82715;94942.13;;;;
2022/08/18 00:25:58;;;;;;;7.500001;6.749999;;;;;;;20.75;61.37402;94958.33;;;;
2022/08/18 00:26:58;;;;;;;7.500001;6.749999;;;;;;;20.75;61.37402;94958.33;;;;
2022/08/18 00:27:59;;;;;;;7.500001;6.749999;;;;;;;20.75;61.37402;94958.33;;;;
2022/08/18 00:28:59;;;;;;;7.500001;6.749999;;;;;;;20.75;61.37402;94958.33;;;;
2022/08/18 00:30:00;;;;;;;7.500001;6.749999;;;;;;;20.75;61.37402;94958.33;;;;
2022/08/18 00:31:06;;;;;;;7.500001;6.749999;;;;;;;20.75;61.37402;94958.33;;;;
2022/08/18 00:32:06;;;;;;;7.500001;6.749999;;;;;;;20.75;61.37402;94958.33;;;;
2022/08/18 00:33:16;;;;;;;7.500001;6.749999;;;;;;;20.75;61.37402;94958.33;;;;
2022/08/18 00:34:16;;;;;;;7.500001;6.749999;;;;;;;20.75;61.37402;94958.33;;;;
2022/08/18 00:35:17;;;;;;;7.500001;6.749999;;;;;;;20.75;61.37402;94958.33;;;;
2022/08/18 00:36:20;;;;;;;7.500001;6.749999;;;;;;;20.75;61.37402;94958.33;;;;
2022/08/18 00:37:20;;;;;;;7.3;6.550001;;;;;;;20.61;62.19434;94966.77;;;;
2022/08/18 00:38:22;;;;;;;7.3;6.550001;;;;;;;20.61;62.19434;94966.77;;;;
2022/08/18 00:39:23;;;;;;;7.3;6.550001;;;;;;;20.61;62.19434;94966.77;;;;
2022/08/18 00:40:23;;;;;;;7.3;6.550001;;;;;;;20.61;62.19434;94966.77;;;;
2022/08/18 00:41:26;;;;;;;7.3;6.550001;;;;;;;20.61;62.19434;94966.77;;;;
2022/08/18 00:42:28;;;;;;;7.3;6.550001;;;;;;;20.61;62.19434;94966.77;;;;
2022/08/18 00:43:30;;;;;;;7.3;6.550001;;;;;;;20.61;62.19434;94966.77;;;;
2022/08/18 00:44:35;;;;;;;7.3;6.550001;;;;;;;20.61;62.19434;94966.77;;;;
2022/08/18 00:45:36;;;;;;;7.3;6.550001;;;;;;;20.61;62.19434;94966.77;;;;
2022/08/18 00:46:39;;;;;;;7.3;6.550001;;;;;;;20.61;62.19434;94966.77;;;;
2022/08/18 00:47:40;;;;;;;6.95;6.35;;;;;;;20.47;62.79297;94933.99;;;;
2022/08/18 00:48:41;;;;;;;6.95;6.35;;;;;;;20.47;62.79297;94933.99;;;;
2022/08/18 00:49:42;;;;;;;6.95;6.35;;;;;;;20.47;62.79297;94933.99;;;;
2022/08/18 00:50:45;;;;;;;6.95;6.35;;;;;;;20.47;62.79297;94933.99;;;;
2022/08/18 00:51:52;;;;;;;6.95;6.35;;;;;;;20.47;62.79297;94933.99;;;;
2022/08/18 00:52:53;;;;;;;6.95;6.35;;;;;;;20.47;62.79297;94933.99;;;;
2022/08/18 00:54:06;;;;;;;6.95;6.35;;;;;;;20.47;62.79297;94933.99;;;;
2022/08/18 00:55:13;;;;;;;6.95;6.35;;;;;;;20.47;62.79297;94933.99;;;;
2022/08/18 00:56:14;;;;;;;6.95;6.35;;;;;;;20.47;62.79297;94933.99;;;;
2022/08/18 00:57:20;;;;;;;6.95;6.35;;;;;;;20.47;62.79297;94933.99;;;;
2022/08/18 00:58:23;;;;;;;7.6;7;;;;;;;20.31;63.3457;94942.69;;;;
2022/08/18 00:59:28;;;;;;;7.6;7;;;;;;;20.31;63.3457;94942.69;;;;
2022/08/18 01:00:39;;;;;;;7.6;7;;;;;;;20.31;63.3457;94942.69;;;;
2022/08/18 01:01:41;;;;;;;7.6;7;;;;;;;20.31;63.3457;94942.69;;;;
2022/08/18 01:02:43;;;;;;;7.6;7;;;;;;;20.31;63.3457;94942.69;;;;
2022/08/18 01:03:52;;;;;;;7.6;7;;;;;;;20.31;63.3457;94942.69;;;;
2022/08/18 01:04:58;;;;;;;7.6;7;;;;;;;20.31;63.3457;94942.69;;;;
2022/08/18 01:06:06;;;;;;;7.6;7;;;;;;;20.31;63.3457;94942.69;;;;
2022/08/18 01:07:14;;;;;;;7.6;7;;;;;;;20.31;63.3457;94942.69;;;;
2022/08/18 01:08:19;;;;;;;7.6;7;;;;;;;20.31;63.3457;94942.69;;;;
2022/08/18 01:09:21;;;;;;;8;6.85;;;;;;;20.26;64.01074;94971.89;;;;
2022/08/18 01:10:22;;;;;;;8;6.85;;;;;;;20.26;64.01074;94971.89;;;;
2022/08/18 01:11:22;;;;;;;8;6.85;;;;;;;20.26;64.01074;94971.89;;;;
2022/08/18 01:12:24;;;;;;;8;6.85;;;;;;;20.26;64.01074;94971.89;;;;
2022/08/18 01:13:24;;;;;;;8;6.85;;;;;;;20.26;64.01074;94971.89;;;;
2022/08/18 01:14:27;;;;;;;8;6.85;;;;;;;20.26;64.01074;94971.89;;;;
2022/08/18 01:15:28;;;;;;;8;6.85;;;;;;;20.26;64.01074;94971.89;;;;
2022/08/18 01:21:49;;;;;;;8.100001;7.199999;;;;;;;20.07;64.75488;94970.51;;;;
2022/08/18 01:22:56;;;;;;;8.100001;7.199999;;;;;;;20.07;64.75488;94970.51;;;;
2022/08/18 01:24:01;;;;;;;8.100001;7.199999;;;;;;;20.07;64.75488;94970.51;;;;
2022/08/18 01:26:09;;;;;;;8.100001;7.199999;;;;;;;20.07;64.75488;94970.51;;;;
2022/08/18 01:27:10;;;;;;;8.100001;7.199999;;;;;;;20.07;64.75488;94970.51;;;;
2022/08/18 01:28:16;;;;;;;8.100001;7.199999;;;;;;;20.07;64.75488;94970.51;;;;
2022/08/18 01:29:17;;;;;;;8.100001;7.199999;;;;;;;20.07;64.75488;94970.51;;;;
2022/08/18 01:30:24;;;;;;;8.299998;7.45;;;;;;;19.81;65.79785;94969.43;;;;
2022/08/18 01:31:24;;;;;;;8.299998;7.45;;;;;;;19.81;65.79785;94969.43;;;;
2022/08/18 01:32:32;;;;;;;8.299998;7.45;;;;;;;19.81;65.79785;94969.43;;;;
2022/08/18 01:33:32;;;;;;;8.299998;7.45;;;;;;;19.81;65.79785;94969.43;;;;
2022/08/18 01:34:37;;;;;;;8.299998;7.45;;;;;;;19.81;65.79785;94969.43;;;;
2022/08/18 01:35:38;;;;;;;8.299998;7.45;;;;;;;19.81;65.79785;94969.43;;;;
2022/08/18 01:36:42;;;;;;;8.299998;7.45;;;;;;;19.81;65.79785;94969.43;;;;
2022/08/18 01:37:42;;;;;;;8.299998;7.45;;;;;;;19.81;65.79785;94969.43;;;;
2022/08/18 01:38:43;;;;;;;8.299998;7.45;;;;;;;19.81;65.79785;94969.43;;;;
2022/08/18 01:39:45;;;;;;;8.299998;7.45;;;;;;;19.81;65.79785;94969.43;;;;
2022/08/18 01:40:46;;;;;;;8.200002;7.4;;;;;;;19.5;66.63184;94966.66;;;;
2022/08/18 01:41:47;;;;;;;8.200002;7.4;;;;;;;19.5;66.63184;94966.66;;;;
2022/08/18 01:42:47;;;;;;;8.200002;7.4;;;;;;;19.5;66.63184;94966.66;;;;
2022/08/18 01:43:48;;;;;;;8.200002;7.4;;;;;;;19.5;66.63184;94966.66;;;;
2022/08/18 01:44:50;;;;;;;8.200002;7.4;;;;;;;19.5;66.63184;94966.66;;;;
2022/08/18 01:45:50;;;;;;;8.200002;7.4;;;;;;;19.5;66.63184;94966.66;;;;
2022/08/18 01:46:52;;;;;;;8.200002;7.4;;;;;;;19.5;66.63184;94966.66;;;;
2022/08/18 01:47:52;;;;;;;8.200002;7.4;;;;;;;19.5;66.63184;94966.66;;;;
2022/08/18 01:48:52;;;;;;;8.200002;7.4;;;;;;;19.5;66.63184;94966.66;;;;
2022/08/18 01:49:53;;;;;;;8.200002;7.4;;;;;;;19.5;66.63184;94966.66;;;;
2022/08/18 01:50:55;;;;;;;8.200002;7.4;;;;;;;19.5;66.63184;94966.66;;;;
2022/08/18 01:51:56;;;;;;;7.700001;7;;;;;;;19.28;67.12695;94935.74;;;;
2022/08/18 01:52:56;;;;;;;7.700001;7;;;;;;;19.28;67.12695;94935.74;;;;
2022/08/18 01:53:57;;;;;;;7.700001;7;;;;;;;19.28;67.12695;94935.74;;;;
2022/08/18 01:54:58;;;;;;;7.700001;7;;;;;;;19.28;67.12695;94935.74;;;;
2022/08/18 01:55:59;;;;;;;7.700001;7;;;;;;;19.28;67.12695;94935.74;;;;
2022/08/18 01:56:59;;;;;;;7.700001;7;;;;;;;19.28;67.12695;94935.74;;;;
2022/08/18 01:58:00;;;;;;;7.700001;7;;;;;;;19.28;67.12695;94935.74;;;;
2022/08/18 01:59:01;;;;;;;7.700001;7;;;;;;;19.28;67.12695;94935.74;;;;
2022/08/18 02:00:02;;;;;;;7.700001;7;;;;;;;19.28;67.12695;94935.74;;;;
2022/08/18 02:01:04;;;;;;;7.700001;7;;;;;;;19.28;67.12695;94935.74;;;;
2022/08/18 02:02:05;;;;;;;7.749999;7.050001;;;;;;;19.04;67.58496;94938.76;;;;
2022/08/18 02:03:06;;;;;;;7.749999;7.050001;;;;;;;19.04;67.58496;94938.76;;;;
2022/08/18 02:04:11;;;;;;;7.749999;7.050001;;;;;;;19.04;67.58496;94938.76;;;;
2022/08/18 02:05:13;;;;;;;7.749999;7.050001;;;;;;;19.04;67.58496;94938.76;;;;
2022/08/18 02:06:18;;;;;;;7.749999;7.050001;;;;;;;19.04;67.58496;94938.76;;;;
2022/08/18 02:07:19;;;;;;;7.749999;7.050001;;;;;;;19.04;67.58496;94938.76;;;;
2022/08/18 02:08:20;;;;;;;7.749999;7.050001;;;;;;;19.04;67.58496;94938.76;;;;
2022/08/18 02:09:21;;;;;;;7.749999;7.050001;;;;;;;19.04;67.58496;94938.76;;;;
2022/08/18 02:10:22;;;;;;;7.749999;7.050001;;;;;;;19.04;67.58496;94938.76;;;;
2022/08/18 02:11:23;;;;;;;7.749999;7.050001;;;;;;;19.04;67.58496;94938.76;;;;
2022/08/18 02:12:23;;;;;;;7.950001;7.15;;;;;;;18.89;67.78223;94942.81;;;;
2022/08/18 02:13:24;;;;;;;7.950001;7.15;;;;;;;18.89;67.78223;94942.81;;;;
2022/08/18 02:14:24;;;;;;;7.950001;7.15;;;;;;;18.89;67.78223;94942.81;;;;
2022/08/18 02:15:25;;;;;;;7.950001;7.15;;;;;;;18.89;67.78223;94942.81;;;;
2022/08/18 02:16:26;;;;;;;7.950001;7.15;;;;;;;18.89;67.78223;94942.81;;;;
2022/08/18 02:17:26;;;;;;;7.950001;7.15;;;;;;;18.89;67.78223;94942.81;;;;
2022/08/18 02:18:27;;;;;;;7.950001;7.15;;;;;;;18.89;67.78223;94942.81;;;;
2022/08/18 02:19:30;;;;;;;7.950001;7.15;;;;;;;18.89;67.78223;94942.81;;;;
2022/08/18 02:20:33;;;;;;;7.950001;7.15;;;;;;;18.89;67.78223;94942.81;;;;
2022/08/18 02:21:33;;;;;;;7.950001;7.15;;;;;;;18.89;67.78223;94942.81;;;;
2022/08/18 02:22:34;;;;;;;7.950001;7.15;;;;;;;18.89;67.78223;94942.81;;;;
2022/08/18 02:23:35;;;;;;;7.499999;6.849999;;;;;;;18.67;68.08984;94945.01;;;;
2022/08/18 02:24:36;;;;;;;7.499999;6.849999;;;;;;;18.67;68.08984;94945.01;;;;
2022/08/18 02:25:38;;;;;;;7.499999;6.849999;;;;;;;18.67;68.08984;94945.01;;;;
2022/08/18 02:26:42;;;;;;;7.499999;6.849999;;;;;;;18.67;68.08984;94945.01;;;;
2022/08/18 02:27:43;;;;;;;7.499999;6.849999;;;;;;;18.67;68.08984;94945.01;;;;
2022/08/18 02:28:44;;;;;;;7.499999;6.849999;;;;;;;18.67;68.08984;94945.01;;;;
2022/08/18 02:29:45;;;;;;;7.499999;6.849999;;;;;;;18.67;68.08984;94945.01;;;;
2022/08/18 02:30:45;;;;;;;7.499999;6.849999;;;;;;;18.67;68.08984;94945.01;;;;
2022/08/18 02:31:46;;;;;;;7.499999;6.849999;;;;;;;18.67;68.08984;94945.01;;;;
2022/08/18 02:32:46;;;;;;;7.499999;6.849999;;;;;;;18.67;68.08984;94945.01;;;;
2022/08/18 02:33:47;;;;;;;8.15;7.45;;;;;;;18.51;68.57129;94933.9;;;;
2022/08/18 02:34:48;;;;;;;8.15;7.45;;;;;;;18.51;68.57129;94933.9;;;;
2022/08/18 02:35:48;;;;;;;8.15;7.45;;;;;;;18.51;68.57129;94933.9;;;;
2022/08/18 02:36:53;;;;;;;8.15;7.45;;;;;;;18.51;68.57129;94933.9;;;;
2022/08/18 02:37:53;;;;;;;8.15;7.45;;;;;;;18.51;68.57129;94933.9;;;;
2022/08/18 02:38:57;;;;;;;8.15;7.45;;;;;;;18.51;68.57129;94933.9;;;;
2022/08/18 02:39:57;;;;;;;8.15;7.45;;;;;;;18.51;68.57129;94933.9;;;;
2022/08/18 02:40:58;;;;;;;8.15;7.45;;;;;;;18.51;68.57129;94933.9;;;;
2022/08/18 02:42:01;;;;;;;8.15;7.45;;;;;;;18.51;68.57129;94933.9;;;;
2022/08/18 02:43:02;;;;;;;8.15;7.45;;;;;;;18.51;68.57129;94933.9;;;;
2022/08/18 02:44:05;;;;;;;8.15;7.45;;;;;;;18.51;68.57129;94933.9;;;;
2022/08/18 02:45:07;;;;;;;7.5;6.799999;;;;;;;18.33;68.81738;94923.33;;;;
2022/08/18 02:46:08;;;;;;;7.5;6.799999;;;;;;;18.33;68.81738;94923.33;;;;
2022/08/18 02:47:09;;;;;;;7.5;6.799999;;;;;;;18.33;68.81738;94923.33;;;;
2022/08/18 02:48:10;;;;;;;7.5;6.799999;;;;;;;18.33;68.81738;94923.33;;;;
2022/08/18 02:49:11;;;;;;;7.5;6.799999;;;;;;;18.33;68.81738;94923.33;;;;
2022/08/18 02:50:12;;;;;;;7.5;6.799999;;;;;;;18.33;68.81738;94923.33;;;;
2022/08/18 02:51:12;;;;;;;7.5;6.799999;;;;;;;18.33;68.81738;94923.33;;;;
2022/08/18 02:52:16;;;;;;;7.5;6.799999;;;;;;;18.33;68.81738;94923.33;;;;
2022/08/18 02:53:20;;;;;;;7.5;6.799999;;;;;;;18.33;68.81738;94923.33;;;;
2022/08/18 02:54:22;;;;;;;7.5;6.799999;;;;;;;18.33;68.81738;94923.33;;;;
2022/08/18 02:55:25;;;;;;;7.4;6.8;;;;;;;18.25;69.26465;94911.83;;;;
2022/08/18 02:56:26;;;;;;;7.4;6.8;;;;;;;18.25;69.26465;94911.83;;;;
2022/08/18 02:57:28;;;;;;;7.4;6.8;;;;;;;18.25;69.26465;94911.83;;;;
2022/08/18 02:58:30;;;;;;;7.4;6.8;;;;;;;18.25;69.26465;94911.83;;;;
2022/08/18 02:59:30;;;;;;;7.4;6.8;;;;;;;18.25;69.26465;94911.83;;;;
2022/08/18 03:00:31;;;;;;;7.4;6.8;;;;;;;18.25;69.26465;94911.83;;;;
2022/08/18 03:01:31;;;;;;;7.4;6.8;;;;;;;18.25;69.26465;94911.83;;;;
2022/08/18 03:02:37;;;;;;;7.4;6.8;;;;;;;18.25;69.26465;94911.83;;;;
2022/08/18 03:03:38;;;;;;;7.4;6.8;;;;;;;18.25;69.26465;94911.83;;;;
2022/08/18 03:04:39;;;;;;;7.4;6.8;;;;;;;18.25;69.26465;94911.83;;;;
2022/08/18 03:05:39;;;;;;;7.4;6.8;;;;;;;18.25;69.26465;94911.83;;;;
2022/08/18 03:06:40;;;;;;;7;6.4;;;;;;;18.08;69.63281;94917.15;;;;
2022/08/18 03:07:42;;;;;;;7;6.4;;;;;;;18.08;69.63281;94917.15;;;;
2022/08/18 03:08:47;;;;;;;7;6.4;;;;;;;18.08;69.63281;94917.15;;;;
2022/08/18 03:09:50;;;;;;;7;6.4;;;;;;;18.08;69.63281;94917.15;;;;
2022/08/18 03:10:50;;;;;;;7;6.4;;;;;;;18.08;69.63281;94917.15;;;;
2022/08/18 03:11:52;;;;;;;7;6.4;;;;;;;18.08;69.63281;94917.15;;;;
2022/08/18 03:12:53;;;;;;;7;6.4;;;;;;;18.08;69.63281;94917.15;;;;
2022/08/18 03:13:53;;;;;;;7;6.4;;;;;;;18.08;69.63281;94917.15;;;;
2022/08/18 03:14:55;;;;;;;7;6.4;;;;;;;18.08;69.63281;94917.15;;;;
2022/08/18 03:15:56;;;;;;;7;6.4;;;;;;;18.08;69.63281;94917.15;;;;
2022/08/18 03:16:57;;;;;;;7.6;7.000001;;;;;;;17.97;69.99902;94920.78;;;;
2022/08/18 03:17:58;;;;;;;7.6;7.000001;;;;;;;17.97;69.99902;94920.78;;;;
2022/08/18 03:18:58;;;;;;;7.6;7.000001;;;;;;;17.97;69.99902;94920.78;;;;
2022/08/18 03:20:00;;;;;;;7.6;7.000001;;;;;;;17.97;69.99902;94920.78;;;;
2022/08/18 03:21:01;;;;;;;7.6;7.000001;;;;;;;17.97;69.99902;94920.78;;;;
2022/08/18 03:22:07;;;;;;;7.6;7.000001;;;;;;;17.97;69.99902;94920.78;;;;
2022/08/18 03:23:07;;;;;;;7.6;7.000001;;;;;;;17.97;69.99902;94920.78;;;;
2022/08/18 03:24:08;;;;;;;7.6;7.000001;;;;;;;17.97;69.99902;94920.78;;;;
2022/08/18 03:25:09;;;;;;;7.6;7.000001;;;;;;;17.97;69.99902;94920.78;;;;
2022/08/18 03:26:10;;;;;;;7.6;7.000001;;;;;;;17.97;69.99902;94920.78;;;;
2022/08/18 03:27:12;;;;;;;7.25;6.649999;;;;;;;17.76;70.33887;94890.14;;;;
2022/08/18 03:28:13;;;;;;;7.25;6.649999;;;;;;;17.76;70.33887;94890.14;;;;
2022/08/18 03:29:15;;;;;;;7.25;6.649999;;;;;;;17.76;70.33887;94890.14;;;;
2022/08/18 03:30:15;;;;;;;7.25;6.649999;;;;;;;17.76;70.33887;94890.14;;;;
2022/08/18 03:31:16;;;;;;;7.25;6.649999;;;;;;;17.76;70.33887;94890.14;;;;
2022/08/18 03:32:19;;;;;;;7.25;6.649999;;;;;;;17.76;70.33887;94890.14;;;;
2022/08/18 03:33:19;;;;;;;7.25;6.649999;;;;;;;17.76;70.33887;94890.14;;;;
2022/08/18 03:34:20;;;;;;;7.25;6.649999;;;;;;;17.76;70.33887;94890.14;;;;
2022/08/18 03:35:21;;;;;;;7.25;6.649999;;;;;;;17.76;70.33887;94890.14;;;;
2022/08/18 03:36:21;;;;;;;7.25;6.649999;;;;;;;17.76;70.33887;94890.14;;;;
2022/08/18 03:37:25;;;;;;;7.25;6.649999;;;;;;;17.76;70.33887;94890.14;;;;
2022/08/18 03:38:26;;;;;;;7.4;6.699999;;;;;;;17.63;70.5791;94885.42;;;;
2022/08/18 03:39:27;;;;;;;7.4;6.699999;;;;;;;17.63;70.5791;94885.42;;;;
2022/08/18 03:40:28;;;;;;;7.4;6.699999;;;;;;;17.63;70.5791;94885.42;;;;
2022/08/18 03:41:28;;;;;;;7.4;6.699999;;;;;;;17.63;70.5791;94885.42;;;;
2022/08/18 03:42:29;;;;;;;7.4;6.699999;;;;;;;17.63;70.5791;94885.42;;;;
2022/08/18 03:43:30;;;;;;;7.4;6.699999;;;;;;;17.63;70.5791;94885.42;;;;
2022/08/18 03:44:30;;;;;;;7.4;6.699999;;;;;;;17.63;70.5791;94885.42;;;;
2022/08/18 03:45:34;;;;;;;7.4;6.699999;;;;;;;17.63;70.5791;94885.42;;;;
2022/08/18 03:46:35;;;;;;;7.4;6.699999;;;;;;;17.63;70.5791;94885.42;;;;
2022/08/18 03:47:36;;;;;;;7.4;6.699999;;;;;;;17.63;70.5791;94885.42;;;;
2022/08/18 03:48:36;;;;;;;7.400001;6.799999;;;;;;;17.44;71.02148;94884.14;;;;
2022/08/18 03:49:40;;;;;;;7.400001;6.799999;;;;;;;17.44;71.02148;94884.14;;;;
2022/08/18 03:50:41;;;;;;;7.400001;6.799999;;;;;;;17.44;71.02148;94884.14;;;;
2022/08/18 03:51:42;;;;;;;7.400001;6.799999;;;;;;;17.44;71.02148;94884.14;;;;
2022/08/18 03:52:47;;;;;;;7.400001;6.799999;;;;;;;17.44;71.02148;94884.14;;;;
2022/08/18 03:53:48;;;;;;;7.400001;6.799999;;;;;;;17.44;71.02148;94884.14;;;;
2022/08/18 03:54:48;;;;;;;7.400001;6.799999;;;;;;;17.44;71.02148;94884.14;;;;
2022/08/18 03:55:49;;;;;;;7.400001;6.799999;;;;;;;17.44;71.02148;94884.14;;;;
2022/08/18 03:56:49;;;;;;;7.400001;6.799999;;;;;;;17.44;71.02148;94884.14;;;;
2022/08/18 03:57:51;;;;;;;7.400001;6.799999;;;;;;;17.44;71.02148;94884.14;;;;
2022/08/18 03:58:52;;;;;;;7.400001;6.799999;;;;;;;17.44;71.02148;94884.14;;;;
2022/08/18 03:59:55;;;;;;;7.85;7.149999;;;;;;;17.37;71.32715;94887.73;;;;
2022/08/18 04:00:55;;;;;;;7.85;7.149999;;;;;;;17.37;71.32715;94887.73;;;;
2022/08/18 04:01:55;;;;;;;7.85;7.149999;;;;;;;17.37;71.32715;94887.73;;;;
2022/08/18 04:02:58;;;;;;;7.85;7.149999;;;;;;;17.37;71.32715;94887.73;;;;
2022/08/18 04:04:02;;;;;;;7.85;7.149999;;;;;;;17.37;71.32715;94887.73;;;;
2022/08/18 04:05:10;;;;;;;7.85;7.149999;;;;;;;17.37;71.32715;94887.73;;;;
2022/08/18 04:06:11;;;;;;;7.85;7.149999;;;;;;;17.37;71.32715;94887.73;;;;
2022/08/18 04:07:16;;;;;;;7.85;7.149999;;;;;;;17.37;71.32715;94887.73;;;;
2022/08/18 04:08:16;;;;;;;7.85;7.149999;;;;;;;17.37;71.32715;94887.73;;;;
2022/08/18 04:09:17;;;;;;;7.85;7.149999;;;;;;;17.37;71.32715;94887.73;;;;
2022/08/18 04:10:18;;;;;;;7.849999;7.050001;;;;;;;17.2;71.57422;94883.4;;;;
2022/08/18 04:11:18;;;;;;;7.849999;7.050001;;;;;;;17.2;71.57422;94883.4;;;;
2022/08/18 04:12:19;;;;;;;7.849999;7.050001;;;;;;;17.2;71.57422;94883.4;;;;
2022/08/18 04:13:21;;;;;;;7.849999;7.050001;;;;;;;17.2;71.57422;94883.4;;;;
2022/08/18 04:14:22;;;;;;;7.849999;7.050001;;;;;;;17.2;71.57422;94883.4;;;;
2022/08/18 04:15:25;;;;;;;7.849999;7.050001;;;;;;;17.2;71.57422;94883.4;;;;
2022/08/18 04:16:26;;;;;;;7.849999;7.050001;;;;;;;17.2;71.57422;94883.4;;;;
2022/08/18 04:17:28;;;;;;;7.849999;7.050001;;;;;;;17.2;71.57422;94883.4;;;;
2022/08/18 04:18:30;;;;;;;7.849999;7.050001;;;;;;;17.2;71.57422;94883.4;;;;
2022/08/18 04:19:33;;;;;;;7.849999;7.050001;;;;;;;17.2;71.57422;94883.4;;;;
2022/08/18 04:20:33;;;;;;;7.75;6.95;;;;;;;17.17;71.86328;94864.43;;;;
2022/08/18 04:21:34;;;;;;;7.75;6.95;;;;;;;17.17;71.86328;94864.43;;;;
2022/08/18 04:22:37;;;;;;;7.75;6.95;;;;;;;17.17;71.86328;94864.43;;;;
2022/08/18 04:23:38;;;;;;;7.75;6.95;;;;;;;17.17;71.86328;94864.43;;;;
2022/08/18 04:24:41;;;;;;;7.75;6.95;;;;;;;17.17;71.86328;94864.43;;;;
2022/08/18 04:25:41;;;;;;;7.75;6.95;;;;;;;17.17;71.86328;94864.43;;;;
2022/08/18 04:26:42;;;;;;;7.75;6.95;;;;;;;17.17;71.86328;94864.43;;;;
2022/08/18 04:27:45;;;;;;;7.75;6.95;;;;;;;17.17;71.86328;94864.43;;;;
2022/08/18 04:28:45;;;;;;;7.75;6.95;;;;;;;17.17;71.86328;94864.43;;;;
2022/08/18 04:29:46;;;;;;;7.75;6.95;;;;;;;17.17;71.86328;94864.43;;;;
2022/08/18 04:30:47;;;;;;;7.75;6.95;;;;;;;17.17;71.86328;94864.43;;;;
2022/08/18 04:31:47;;;;;;;8;7.3;;;;;;;17.07;72.12012;94856;;;;
2022/08/18 04:32:50;;;;;;;8;7.3;;;;;;;17.07;72.12012;94856;;;;
2022/08/18 04:33:50;;;;;;;8;7.3;;;;;;;17.07;72.12012;94856;;;;
2022/08/18 04:34:51;;;;;;;8;7.3;;;;;;;17.07;72.12012;94856;;;;
2022/08/18 04:35:52;;;;;;;8;7.3;;;;;;;17.07;72.12012;94856;;;;
2022/08/18 04:36:53;;;;;;;8;7.3;;;;;;;17.07;72.12012;94856;;;;
2022/08/18 04:37:53;;;;;;;8;7.3;;;;;;;17.07;72.12012;94856;;;;
2022/08/18 04:38:54;;;;;;;8;7.3;;;;;;;17.07;72.12012;94856;;;;
2022/08/18 04:39:54;;;;;;;8;7.3;;;;;;;17.07;72.12012;94856;;;;
2022/08/18 04:40:55;;;;;;;8;7.3;;;;;;;17.07;72.12012;94856;;;;
2022/08/18 04:41:58;;;;;;;8.25;7.45;;;;;;;17.04;72.33594;94859.99;;;;
2022/08/18 04:43:00;;;;;;;8.25;7.45;;;;;;;17.04;72.33594;94859.99;;;;
2022/08/18 04:44:00;;;;;;;8.25;7.45;;;;;;;17.04;72.33594;94859.99;;;;
2022/08/18 04:45:07;;;;;;;8.25;7.45;;;;;;;17.04;72.33594;94859.99;;;;
2022/08/18 04:46:08;;;;;;;8.25;7.45;;;;;;;17.04;72.33594;94859.99;;;;
2022/08/18 04:47:09;;;;;;;8.25;7.45;;;;;;;17.04;72.33594;94859.99;;;;
2022/08/18 04:48:09;;;;;;;8.25;7.45;;;;;;;17.04;72.33594;94859.99;;;;
2022/08/18 04:49:10;;;;;;;8.25;7.45;;;;;;;17.04;72.33594;94859.99;;;;
2022/08/18 04:50:11;;;;;;;8.25;7.45;;;;;;;17.04;72.33594;94859.99;;;;
2022/08/18 04:51:11;;;;;;;8.25;7.45;;;;;;;17.04;72.33594;94859.99;;;;
2022/08/18 04:57:32;;;;;;;8.850001;7.95;;;;;;;17.01;72.50293;94859.69;;;;
2022/08/18 04:58:34;;;;;;;8.850001;7.95;;;;;;;17.01;72.50293;94859.69;;;;
2022/08/18 04:59:34;;;;;;;8.850001;7.95;;;;;;;17.01;72.50293;94859.69;;;;
2022/08/18 05:00:36;;;;;;;8.850001;7.95;;;;;;;17.01;72.50293;94859.69;;;;
2022/08/18 05:01:36;;;;;;;8.850001;7.95;;;;;;;17.01;72.50293;94859.69;;;;
2022/08/18 05:02:39;;;;;;;8.850001;7.95;;;;;;;17.01;72.50293;94859.69;;;;
2022/08/18 05:03:40;;;;;;;7.95;7.25;;;;;;;17.12;72.67578;94884.85;;;;
2022/08/18 05:04:41;;;;;;;7.95;7.25;;;;;;;17.12;72.67578;94884.85;;;;
2022/08/18 05:05:42;;;;;;;7.95;7.25;;;;;;;17.12;72.67578;94884.85;;;;
2022/08/18 05:06:43;;;;;;;7.95;7.25;;;;;;;17.12;72.67578;94884.85;;;;
2022/08/18 05:07:44;;;;;;;7.95;7.25;;;;;;;17.12;72.67578;94884.85;;;;
2022/08/18 05:08:47;;;;;;;7.95;7.25;;;;;;;17.12;72.67578;94884.85;;;;
2022/08/18 05:09:47;;;;;;;7.95;7.25;;;;;;;17.12;72.67578;94884.85;;;;
2022/08/18 05:10:48;;;;;;;7.95;7.25;;;;;;;17.12;72.67578;94884.85;;;;
2022/08/18 05:11:53;;;;;;;7.95;7.25;;;;;;;17.12;72.67578;94884.85;;;;
2022/08/18 05:12:54;;;;;;;7.95;7.25;;;;;;;17.12;72.67578;94884.85;;;;
2022/08/18 05:13:55;;;;;;;8.2;7.349999;;;;;;;17.39;72.58789;94886.94;;;;
2022/08/18 05:14:56;;;;;;;8.2;7.349999;;;;;;;17.39;72.58789;94886.94;;;;
2022/08/18 05:15:57;;;;;;;8.2;7.349999;;;;;;;17.39;72.58789;94886.94;;;;
2022/08/18 05:16:59;;;;;;;8.2;7.349999;;;;;;;17.39;72.58789;94886.94;;;;
2022/08/18 05:18:00;;;;;;;8.2;7.349999;;;;;;;17.39;72.58789;94886.94;;;;
2022/08/18 05:19:02;;;;;;;8.2;7.349999;;;;;;;17.39;72.58789;94886.94;;;;
2022/08/18 05:20:04;;;;;;;8.2;7.349999;;;;;;;17.39;72.58789;94886.94;;;;
2022/08/18 05:21:07;;;;;;;8.2;7.349999;;;;;;;17.39;72.58789;94886.94;;;;
2022/08/18 05:22:09;;;;;;;8.2;7.349999;;;;;;;17.39;72.58789;94886.94;;;;
2022/08/18 05:23:10;;;;;;;8.2;7.349999;;;;;;;17.39;72.58789;94886.94;;;;
2022/08/18 05:24:11;;;;;;;8.2;7.349999;;;;;;;17.39;72.58789;94886.94;;;;
2022/08/18 05:25:12;;;;;;;8.2;7.349999;;;;;;;17.39;72.58789;94886.94;;;;
2022/08/18 05:26:13;;;;;;;8.2;7.349999;;;;;;;17.39;72.58789;94886.94;;;;
2022/08/18 05:27:16;;;;;;;8.2;7.349999;;;;;;;17.39;72.58789;94886.94;;;;
2022/08/18 05:28:17;;;;;;;8.2;7.349999;;;;;;;17.39;72.58789;94886.94;;;;
2022/08/18 05:29:17;;;;;;;8.2;7.349999;;;;;;;17.39;72.58789;94886.94;;;;
2022/08/18 05:30:19;;;;;;;8.2;7.349999;;;;;;;17.39;72.58789;94886.94;;;;
2022/08/18 05:31:19;;;;;;;8.2;7.349999;;;;;;;17.39;72.58789;94886.94;;;;
2022/08/18 05:32:22;;;;;;;8.2;7.349999;;;;;;;17.39;72.58789;94886.94;;;;
2022/08/18 05:33:23;;;;;;;8.2;7.349999;;;;;;;17.39;72.58789;94886.94;;;;
2022/08/18 05:34:24;;;;;;;8.2;7.349999;;;;;;;17.39;72.58789;94886.94;;;;
2022/08/18 05:35:24;;;;;;;7.5;6.8;;;;;;;18.81;71.4707;94934.4;;;;
2022/08/18 05:36:32;;;;;;;7.5;6.8;;;;;;;18.81;71.4707;94934.4;;;;
2022/08/18 05:37:54;;;;;;;7.5;6.8;;;;;;;18.81;71.4707;94934.4;;;;
2022/08/18 05:39:07;;;;;;;7.5;6.8;;;;;;;18.81;71.4707;94934.4;;;;
2022/08/18 05:40:19;;;;;;;7.5;6.8;;;;;;;18.81;71.4707;94934.4;;;;
2022/08/18 05:41:22;;;;;;;7.5;6.8;;;;;;;18.81;71.4707;94934.4;;;;
2022/08/18 05:42:27;;;;;;;7.5;6.8;;;;;;;18.81;71.4707;94934.4;;;;
2022/08/18 05:43:33;;;;;;;7.5;6.8;;;;;;;18.81;71.4707;94934.4;;;;
2022/08/18 05:44:36;;;;;;;7.5;6.8;;;;;;;18.81;71.4707;94934.4;;;;
2022/08/18 05:45:40;;;;;;;7.5;6.8;;;;;;;18.81;71.4707;94934.4;;;;
2022/08/18 05:46:41;;;;;;;7.1;6.400001;;;;;;;19.68;70.5332;94923.91;;;;
2022/08/18 05:47:48;;;;;;;7.1;6.400001;;;;;;;19.68;70.5332;94923.91;;;;
2022/08/18 05:48:48;;;;;;;7.1;6.400001;;;;;;;19.68;70.5332;94923.91;;;;
2022/08/18 05:49:49;;;;;;;7.1;6.400001;;;;;;;19.68;70.5332;94923.91;;;;
2022/08/18 05:50:51;;;;;;;7.1;6.400001;;;;;;;19.68;70.5332;94923.91;;;;
2022/08/18 05:51:54;;;;;;;7.1;6.400001;;;;;;;19.68;70.5332;94923.91;;;;